sensor_id;sensor_type;location;lat;lon;timestamp;P1;durP1;ratioP1;P2;durP2;ratioP2
23402;SDS011;11874;48.228;11.684;2023-03-20T08:12:14;7.00;;;5.82;;
23402;SDS011;11874;48.228;11.684;2023-03-20T08:14:42;7.32;;;5.85;;
23402;SDS011;11874;48.228;11.684;2023-03-20T08:17:10;7.15;;;5.38;;
23402;SDS011;11874;48.228;11.684;2023-03-20T08:19:42;6.43;;;5.43;;
23402;SDS011;11874;48.228;11.684;2023-03-20T08:22:11;8.43;;;5.85;;
23402;SDS011;11874;48.228;11.684;2023-03-20T08:24:38;7.65;;;5.85;;
23402;SDS011;11874;48.228;11.684;2023-03-20T08:27:06;6.32;;;5.55;;
23402;SDS011;11874;48.228;11.684;2023-03-20T08:29:36;5.88;;;4.85;;
23402;SDS011;11874;48.228;11.684;2023-03-20T08:32:04;6.75;;;5.00;;
23402;SDS011;11874;48.228;11.684;2023-03-20T08:34:32;7.18;;;4.85;;
23402;SDS011;11874;48.228;11.684;2023-03-20T08:37:01;5.13;;;4.22;;
23402;SDS011;11874;48.228;11.684;2023-03-20T08:39:30;5.43;;;4.45;;
23402;SDS011;11874;48.228;11.684;2023-03-20T08:41:58;7.25;;;4.63;;
23402;SDS011;11874;48.228;11.684;2023-03-20T08:44:26;14.52;;;5.70;;
23402;SDS011;11874;48.228;11.684;2023-03-20T08:46:56;5.55;;;4.80;;
23402;SDS011;11874;48.228;11.684;2023-03-20T08:49:24;6.22;;;4.85;;
23402;SDS011;11874;48.228;11.684;2023-03-20T08:51:53;6.10;;;5.05;;
23402;SDS011;11874;48.228;11.684;2023-03-20T08:54:20;7.72;;;4.80;;
23402;SDS011;11874;48.228;11.684;2023-03-20T08:56:48;6.40;;;4.72;;
23402;SDS011;11874;48.228;11.684;2023-03-20T08:59:16;6.13;;;4.47;;
23402;SDS011;11874;48.228;11.684;2023-03-20T09:01:45;8.25;;;4.50;;
23402;SDS011;11874;48.228;11.684;2023-03-20T09:04:17;5.88;;;4.43;;
23402;SDS011;11874;48.228;11.684;2023-03-20T09:06:45;5.43;;;4.45;;
23402;SDS011;11874;48.228;11.684;2023-03-20T09:09:13;6.82;;;4.50;;
23402;SDS011;11874;48.228;11.684;2023-03-20T09:11:43;4.55;;;4.15;;
23402;SDS011;11874;48.228;11.684;2023-03-20T09:14:12;7.18;;;4.00;;
23402;SDS011;11874;48.228;11.684;2023-03-20T09:16:40;18.85;;;4.57;;
23402;SDS011;11874;48.228;11.684;2023-03-20T09:19:08;6.07;;;3.85;;
23402;SDS011;11874;48.228;11.684;2023-03-20T09:21:37;3.92;;;3.38;;
23402;SDS011;11874;48.228;11.684;2023-03-20T09:24:05;3.90;;;3.50;;
23402;SDS011;11874;48.228;11.684;2023-03-20T09:26:33;6.78;;;3.45;;
23402;SDS011;11874;48.228;11.684;2023-03-20T09:29:02;4.00;;;3.28;;
23402;SDS011;11874;48.228;11.684;2023-03-20T09:31:29;3.97;;;3.58;;
23402;SDS011;11874;48.228;11.684;2023-03-20T09:33:57;6.20;;;3.55;;
23402;SDS011;11874;48.228;11.684;2023-03-20T09:36:25;5.90;;;3.30;;
23402;SDS011;11874;48.228;11.684;2023-03-20T09:38:55;3.83;;;3.00;;
23402;SDS011;11874;48.228;11.684;2023-03-20T09:41:23;4.78;;;2.90;;
23402;SDS011;11874;48.228;11.684;2023-03-20T09:43:56;4.45;;;2.75;;
23402;SDS011;11874;48.228;11.684;2023-03-20T09:46:39;3.28;;;2.60;;
23402;SDS011;11874;48.228;11.684;2023-03-20T09:49:20;3.42;;;3.08;;
23402;SDS011;11874;48.228;11.684;2023-03-20T09:52:00;4.63;;;3.40;;
23402;SDS011;11874;48.228;11.684;2023-03-20T09:54:47;3.88;;;2.92;;
23402;SDS011;11874;48.228;11.684;2023-03-20T09:57:20;4.38;;;2.88;;
23402;SDS011;11874;48.228;11.684;2023-03-20T09:59:52;3.42;;;2.60;;
23402;SDS011;11874;48.228;11.684;2023-03-20T10:02:25;3.38;;;2.72;;
23402;SDS011;11874;48.228;11.684;2023-03-20T10:05:02;3.17;;;2.38;;
23402;SDS011;11874;48.228;11.684;2023-03-20T10:07:38;2.60;;;2.35;;
23402;SDS011;11874;48.228;11.684;2023-03-20T10:10:11;2.20;;;1.70;;
23402;SDS011;11874;48.228;11.684;2023-03-20T10:12:48;2.50;;;2.28;;
23402;SDS011;11874;48.228;11.684;2023-03-20T10:15:27;3.38;;;2.20;;
23402;SDS011;11874;48.228;11.684;2023-03-20T10:18:10;3.50;;;1.90;;
23402;SDS011;11874;48.228;11.684;2023-03-20T10:20:45;2.40;;;2.20;;
23402;SDS011;11874;48.228;11.684;2023-03-20T10:23:22;4.38;;;2.60;;
23402;SDS011;11874;48.228;11.684;2023-03-20T10:25:59;2.75;;;1.90;;
23402;SDS011;11874;48.228;11.684;2023-03-20T10:28:33;1.98;;;1.80;;
23402;SDS011;11874;48.228;11.684;2023-03-20T10:31:10;6.05;;;2.15;;
23402;SDS011;11874;48.228;11.684;2023-03-20T10:33:51;3.65;;;2.17;;
23402;SDS011;11874;48.228;11.684;2023-03-20T10:36:31;5.05;;;2.22;;
23402;SDS011;11874;48.228;11.684;2023-03-20T10:39:09;2.55;;;2.25;;
23402;SDS011;11874;48.228;11.684;2023-03-20T10:41:46;4.13;;;2.25;;
23402;SDS011;11874;48.228;11.684;2023-03-20T10:44:21;2.95;;;2.20;;
23402;SDS011;11874;48.228;11.684;2023-03-20T10:46:56;5.35;;;2.30;;
23402;SDS011;11874;48.228;11.684;2023-03-20T10:49:30;2.90;;;2.40;;
23402;SDS011;11874;48.228;11.684;2023-03-20T10:52:04;2.55;;;1.80;;
23402;SDS011;11874;48.228;11.684;2023-03-20T10:54:37;2.13;;;1.90;;
23402;SDS011;11874;48.228;11.684;2023-03-20T10:57:11;3.10;;;1.75;;
23402;SDS011;11874;48.228;11.684;2023-03-20T10:59:45;2.42;;;1.95;;
23402;SDS011;11874;48.228;11.684;2023-03-20T11:02:16;4.70;;;2.30;;
23402;SDS011;11874;48.228;11.684;2023-03-20T11:04:46;2.38;;;2.17;;
23402;SDS011;11874;48.228;11.684;2023-03-20T11:07:16;3.25;;;2.20;;
23402;SDS011;11874;48.228;11.684;2023-03-20T11:12:41;6.68;;;2.10;;
23402;SDS011;11874;48.228;11.684;2023-03-20T11:15:14;4.65;;;1.80;;
23402;SDS011;11874;48.228;11.684;2023-03-20T11:17:55;1.90;;;1.60;;
23402;SDS011;11874;48.228;11.684;2023-03-20T11:20:25;2.00;;;1.80;;
23402;SDS011;11874;48.228;11.684;2023-03-20T11:22:57;3.97;;;1.83;;
23402;SDS011;11874;48.228;11.684;2023-03-20T11:25:29;3.72;;;1.70;;
23402;SDS011;11874;48.228;11.684;2023-03-20T11:30:47;1.52;;;1.20;;
23402;SDS011;11874;48.228;11.684;2023-03-20T11:33:30;1.88;;;1.25;;
23402;SDS011;11874;48.228;11.684;2023-03-20T11:35:59;1.30;;;1.20;;
23402;SDS011;11874;48.228;11.684;2023-03-20T11:38:28;3.22;;;1.30;;
23402;SDS011;11874;48.228;11.684;2023-03-20T11:40:57;1.83;;;1.10;;
23402;SDS011;11874;48.228;11.684;2023-03-20T11:43:26;1.92;;;1.25;;
23402;SDS011;11874;48.228;11.684;2023-03-20T11:45:55;2.47;;;1.45;;
23402;SDS011;11874;48.228;11.684;2023-03-20T11:48:26;1.20;;;1.10;;
23402;SDS011;11874;48.228;11.684;2023-03-20T11:51:04;6.70;;;1.13;;
23402;SDS011;11874;48.228;11.684;2023-03-20T11:53:35;4.28;;;1.20;;
23402;SDS011;11874;48.228;11.684;2023-03-20T11:56:07;0.90;;;0.70;;
23402;SDS011;11874;48.228;11.684;2023-03-20T11:58:45;2.25;;;0.68;;
23402;SDS011;11874;48.228;11.684;2023-03-20T12:01:17;0.80;;;0.80;;
23402;SDS011;11874;48.228;11.684;2023-03-20T12:03:49;2.55;;;0.68;;
23402;SDS011;11874;48.228;11.684;2023-03-20T12:06:21;0.63;;;0.60;;
23402;SDS011;11874;48.228;11.684;2023-03-20T12:08:53;1.58;;;0.65;;
23402;SDS011;11874;48.228;11.684;2023-03-20T12:11:37;2.25;;;0.80;;
23402;SDS011;11874;48.228;11.684;2023-03-20T12:14:15;0.70;;;0.70;;
23402;SDS011;11874;48.228;11.684;2023-03-20T12:16:48;1.30;;;1.00;;
23402;SDS011;11874;48.228;11.684;2023-03-20T12:19:22;1.38;;;0.98;;
23402;SDS011;11874;48.228;11.684;2023-03-20T12:21:58;5.20;;;1.35;;
23402;SDS011;11874;48.228;11.684;2023-03-20T12:24:30;2.90;;;1.45;;
23402;SDS011;11874;48.228;11.684;2023-03-20T12:27:10;3.05;;;1.67;;
23402;SDS011;11874;48.228;11.684;2023-03-20T12:29:46;1.45;;;1.02;;
23402;SDS011;11874;48.228;11.684;2023-03-20T12:32:19;1.75;;;1.08;;
23402;SDS011;11874;48.228;11.684;2023-03-20T12:34:50;1.13;;;1.02;;
23402;SDS011;11874;48.228;11.684;2023-03-20T12:37:21;1.23;;;1.13;;
23402;SDS011;11874;48.228;11.684;2023-03-20T12:39:51;1.25;;;1.00;;
23402;SDS011;11874;48.228;11.684;2023-03-20T12:42:25;1.58;;;1.10;;
23402;SDS011;11874;48.228;11.684;2023-03-20T12:45:02;2.85;;;1.10;;
23402;SDS011;11874;48.228;11.684;2023-03-20T12:47:39;2.10;;;1.30;;
23402;SDS011;11874;48.228;11.684;2023-03-20T12:50:24;1.45;;;1.00;;
23402;SDS011;11874;48.228;11.684;2023-03-20T12:53:00;3.00;;;1.25;;
23402;SDS011;11874;48.228;11.684;2023-03-20T12:55:51;2.33;;;1.50;;
23402;SDS011;11874;48.228;11.684;2023-03-20T12:58:31;1.30;;;1.20;;
23402;SDS011;11874;48.228;11.684;2023-03-20T13:01:09;1.60;;;1.15;;
23402;SDS011;11874;48.228;11.684;2023-03-20T13:03:51;1.63;;;1.40;;
23402;SDS011;11874;48.228;11.684;2023-03-20T13:06:42;2.88;;;1.40;;
23402;SDS011;11874;48.228;11.684;2023-03-20T13:12:25;4.18;;;1.30;;
23402;SDS011;11874;48.228;11.684;2023-03-20T13:15:06;1.40;;;1.27;;
23402;SDS011;11874;48.228;11.684;2023-03-20T13:17:58;1.00;;;1.00;;
23402;SDS011;11874;48.228;11.684;2023-03-20T13:20:32;1.48;;;1.38;;
23402;SDS011;11874;48.228;11.684;2023-03-20T13:23:08;2.05;;;1.50;;
23402;SDS011;11874;48.228;11.684;2023-03-20T13:25:46;1.40;;;1.30;;
23402;SDS011;11874;48.228;11.684;2023-03-20T13:28:29;3.88;;;1.33;;
23402;SDS011;11874;48.228;11.684;2023-03-20T13:31:05;1.23;;;1.13;;
23402;SDS011;11874;48.228;11.684;2023-03-20T13:33:46;1.83;;;1.40;;
23402;SDS011;11874;48.228;11.684;2023-03-20T13:36:35;1.23;;;1.13;;
23402;SDS011;11874;48.228;11.684;2023-03-20T13:39:13;2.40;;;2.10;;
23402;SDS011;11874;48.228;11.684;2023-03-20T13:41:47;17.67;;;10.07;;
23402;SDS011;11874;48.228;11.684;2023-03-20T13:44:16;5.05;;;3.25;;
23402;SDS011;11874;48.228;11.684;2023-03-20T13:46:46;2.00;;;1.73;;
23402;SDS011;11874;48.228;11.684;2023-03-20T13:49:20;2.20;;;1.90;;
23402;SDS011;11874;48.228;11.684;2023-03-20T13:51:58;1.40;;;1.30;;
23402;SDS011;11874;48.228;11.684;2023-03-20T13:54:35;1.13;;;1.00;;
23402;SDS011;11874;48.228;11.684;2023-03-20T13:57:10;0.70;;;0.70;;
23402;SDS011;11874;48.228;11.684;2023-03-20T13:59:57;0.77;;;0.77;;
23402;SDS011;11874;48.228;11.684;2023-03-20T14:02:39;0.55;;;0.55;;
23402;SDS011;11874;48.228;11.684;2023-03-20T14:05:20;1.33;;;0.77;;
23402;SDS011;11874;48.228;11.684;2023-03-20T14:07:54;0.70;;;0.70;;
23402;SDS011;11874;48.228;11.684;2023-03-20T14:10:32;0.88;;;0.88;;
23402;SDS011;11874;48.228;11.684;2023-03-20T14:13:03;0.90;;;0.90;;
23402;SDS011;11874;48.228;11.684;2023-03-20T14:15:44;1.23;;;1.13;;
23402;SDS011;11874;48.228;11.684;2023-03-20T14:18:20;1.10;;;1.00;;
23402;SDS011;11874;48.228;11.684;2023-03-20T14:20:52;1.35;;;0.90;;
23402;SDS011;11874;48.228;11.684;2023-03-20T14:23:27;0.95;;;0.95;;
23402;SDS011;11874;48.228;11.684;2023-03-20T14:26:03;2.47;;;0.90;;
23402;SDS011;11874;48.228;11.684;2023-03-20T14:28:42;3.33;;;1.00;;
23402;SDS011;11874;48.228;11.684;2023-03-20T14:31:19;1.30;;;1.20;;
23402;SDS011;11874;48.228;11.684;2023-03-20T14:33:57;2.08;;;0.93;;
23402;SDS011;11874;48.228;11.684;2023-03-20T14:36:29;1.15;;;1.05;;
23402;SDS011;11874;48.228;11.684;2023-03-20T14:39:14;1.45;;;0.77;;
23402;SDS011;11874;48.228;11.684;2023-03-20T14:41:59;1.50;;;1.08;;
23402;SDS011;11874;48.228;11.684;2023-03-20T14:44:35;1.77;;;1.40;;
23402;SDS011;11874;48.228;11.684;2023-03-20T14:47:19;3.30;;;1.27;;
23402;SDS011;11874;48.228;11.684;2023-03-20T14:49:56;1.63;;;1.30;;
23402;SDS011;11874;48.228;11.684;2023-03-20T14:52:33;3.10;;;1.35;;
23402;SDS011;11874;48.228;11.684;2023-03-20T14:55:27;1.17;;;1.08;;
23402;SDS011;11874;48.228;11.684;2023-03-20T14:58:01;2.78;;;2.28;;
23402;SDS011;11874;48.228;11.684;2023-03-20T15:00:32;7.95;;;4.30;;
23402;SDS011;11874;48.228;11.684;2023-03-20T15:03:04;3.38;;;1.65;;
23402;SDS011;11874;48.228;11.684;2023-03-20T15:05:33;1.73;;;1.33;;
23402;SDS011;11874;48.228;11.684;2023-03-20T15:08:06;2.33;;;1.75;;
23402;SDS011;11874;48.228;11.684;2023-03-20T15:10:38;2.42;;;1.42;;
23402;SDS011;11874;48.228;11.684;2023-03-20T15:13:12;1.30;;;1.20;;
23402;SDS011;11874;48.228;11.684;2023-03-20T15:15:50;1.20;;;1.10;;
23402;SDS011;11874;48.228;11.684;2023-03-20T15:18:19;1.30;;;1.20;;
23402;SDS011;11874;48.228;11.684;2023-03-20T15:20:48;2.53;;;1.40;;
23402;SDS011;11874;48.228;11.684;2023-03-20T15:23:17;2.83;;;1.10;;
23402;SDS011;11874;48.228;11.684;2023-03-20T15:25:46;1.25;;;1.10;;
23402;SDS011;11874;48.228;11.684;2023-03-20T15:28:15;1.27;;;1.10;;
23402;SDS011;11874;48.228;11.684;2023-03-20T15:30:47;2.60;;;1.42;;
23402;SDS011;11874;48.228;11.684;2023-03-20T15:33:17;1.38;;;1.00;;
23402;SDS011;11874;48.228;11.684;2023-03-20T15:35:50;1.02;;;0.95;;
23402;SDS011;11874;48.228;11.684;2023-03-20T15:38:20;1.30;;;1.20;;
23402;SDS011;11874;48.228;11.684;2023-03-20T15:40:48;3.33;;;0.90;;
23402;SDS011;11874;48.228;11.684;2023-03-20T15:43:18;1.10;;;0.80;;
23402;SDS011;11874;48.228;11.684;2023-03-20T15:45:49;0.77;;;0.77;;
23402;SDS011;11874;48.228;11.684;2023-03-20T15:48:35;0.80;;;0.80;;
23402;SDS011;11874;48.228;11.684;2023-03-20T15:51:03;0.82;;;0.68;;
23402;SDS011;11874;48.228;11.684;2023-03-20T15:53:33;0.75;;;0.70;;
23402;SDS011;11874;48.228;11.684;2023-03-20T15:56:04;0.90;;;0.80;;
23402;SDS011;11874;48.228;11.684;2023-03-20T15:58:44;1.52;;;0.70;;
23402;SDS011;11874;48.228;11.684;2023-03-20T16:01:14;2.47;;;0.80;;
23402;SDS011;11874;48.228;11.684;2023-03-20T16:03:44;2.63;;;1.92;;
23402;SDS011;11874;48.228;11.684;2023-03-20T16:06:16;1.88;;;1.00;;
23402;SDS011;11874;48.228;11.684;2023-03-20T16:08:56;2.45;;;0.88;;
23402;SDS011;11874;48.228;11.684;2023-03-20T16:11:33;1.38;;;0.60;;
23402;SDS011;11874;48.228;11.684;2023-03-20T16:14:04;0.75;;;0.75;;
23402;SDS011;11874;48.228;11.684;2023-03-20T16:16:33;1.42;;;0.60;;
23402;SDS011;11874;48.228;11.684;2023-03-20T16:19:03;2.53;;;0.80;;
23402;SDS011;11874;48.228;11.684;2023-03-20T16:21:34;0.90;;;0.75;;
23402;SDS011;11874;48.228;11.684;2023-03-20T16:24:07;0.75;;;0.70;;
23402;SDS011;11874;48.228;11.684;2023-03-20T16:26:41;1.63;;;0.90;;
23402;SDS011;11874;48.228;11.684;2023-03-20T16:29:11;0.70;;;0.70;;
23402;SDS011;11874;48.228;11.684;2023-03-20T16:31:42;1.20;;;0.90;;
23402;SDS011;11874;48.228;11.684;2023-03-20T16:34:16;1.08;;;0.90;;
23402;SDS011;11874;48.228;11.684;2023-03-20T16:36:51;1.08;;;0.70;;
23402;SDS011;11874;48.228;11.684;2023-03-20T16:39:23;1.23;;;1.10;;
23402;SDS011;11874;48.228;11.684;2023-03-20T16:44:51;1.10;;;1.00;;
23402;SDS011;11874;48.228;11.684;2023-03-20T16:47:21;1.00;;;0.90;;
23402;SDS011;11874;48.228;11.684;2023-03-20T16:50:10;0.70;;;0.70;;
23402;SDS011;11874;48.228;11.684;2023-03-20T16:52:44;1.08;;;0.90;;
23402;SDS011;11874;48.228;11.684;2023-03-20T16:55:16;1.52;;;1.08;;
23402;SDS011;11874;48.228;11.684;2023-03-20T16:57:50;1.23;;;1.13;;
23402;SDS011;11874;48.228;11.684;2023-03-20T17:00:22;1.33;;;0.90;;
23402;SDS011;11874;48.228;11.684;2023-03-20T17:02:57;0.82;;;0.80;;
23402;SDS011;11874;48.228;11.684;2023-03-20T17:05:34;1.02;;;0.90;;
23402;SDS011;11874;48.228;11.684;2023-03-20T17:08:10;10.02;;;5.35;;
23402;SDS011;11874;48.228;11.684;2023-03-20T17:10:43;7.07;;;2.05;;
23402;SDS011;11874;48.228;11.684;2023-03-20T17:13:15;2.55;;;2.20;;
